createdAt,value
2022-09-21T00:01:07.110Z,76.85
2022-09-21T00:03:34.150Z,76.92
2022-09-21T00:06:05.472Z,77.03
2022-09-21T00:08:32.940Z,76.90
2022-09-21T00:11:00.560Z,76.98
2022-09-21T00:13:28.074Z,76.93
2022-09-21T00:15:55.912Z,77.01
2022-09-21T00:18:23.767Z,77.08
2022-09-21T00:20:51.986Z,76.94
2022-09-21T00:23:19.816Z,76.97
2022-09-21T00:25:46.865Z,77.13
2022-09-21T00:28:13.883Z,76.99
2022-09-21T00:30:41.479Z,76.87
2022-09-21T00:33:08.282Z,77.12
2022-09-21T00:35:35.051Z,76.96
2022-09-21T00:38:03.278Z,76.82
2022-09-21T00:40:31.443Z,76.85
2022-09-21T00:43:15.747Z,76.81
2022-09-21T00:45:46.870Z,76.83
2022-09-21T00:48:15.035Z,76.79
2022-09-21T00:50:49.536Z,76.82
2022-09-21T00:53:16.405Z,76.93
2022-09-21T00:55:49.483Z,76.82
2022-09-21T00:58:23.745Z,76.94
2022-09-21T01:00:51.771Z,76.84
2022-09-21T01:03:18.601Z,76.97
2022-09-21T01:05:45.319Z,76.90
2022-09-21T01:08:14.855Z,76.84
2022-09-21T01:10:57.274Z,77.02
2022-09-21T01:13:39.259Z,77.01
2022-09-21T01:16:17.634Z,76.81
2022-09-21T01:19:00.587Z,76.80
2022-09-21T01:21:34.744Z,76.69
2022-09-21T01:24:07.511Z,76.74
2022-09-21T01:27:08.273Z,76.54
2022-09-21T01:29:38.011Z,76.62
2022-09-21T01:32:17.811Z,76.69
2022-09-21T01:34:49.072Z,76.72
2022-09-21T01:37:23.853Z,76.41
2022-09-21T01:39:57.641Z,76.37
2022-09-21T01:42:28.152Z,76.62
2022-09-21T01:44:58.973Z,76.30
2022-09-21T01:47:30.972Z,76.35
2022-09-21T01:50:02.060Z,76.50
2022-09-21T01:52:49.688Z,76.50
2022-09-21T01:55:27.539Z,76.57
2022-09-21T01:58:24.106Z,76.69
2022-09-21T02:00:55.032Z,76.59
2022-09-21T02:03:34.388Z,76.24
2022-09-21T02:06:03.631Z,76.62
2022-09-21T02:08:34.362Z,76.76
2022-09-21T02:11:02.750Z,76.79
2022-09-21T02:13:36.831Z,76.74
2022-09-21T02:16:06.372Z,76.81
2022-09-21T02:19:21.611Z,76.79
2022-09-21T02:21:59.109Z,76.66
2022-09-21T02:24:42.106Z,76.61
2022-09-21T02:27:17.583Z,76.63
2022-09-21T02:29:47.307Z,76.81
2022-09-21T02:32:26.302Z,76.80
2022-09-21T02:35:02.877Z,76.95
2022-09-21T02:37:44.564Z,76.91
2022-09-21T02:40:29.374Z,76.89
2022-09-21T02:43:01.266Z,76.86
2022-09-21T02:45:33.877Z,77.02
2022-09-21T02:48:08.160Z,76.89
2022-09-21T02:50:45.950Z,77.09
2022-09-21T02:53:18.638Z,77.15
2022-09-21T02:55:46.503Z,76.76
2022-09-21T02:58:15.972Z,76.89
2022-09-21T03:00:42.785Z,76.95
2022-09-21T03:03:24.378Z,76.98
2022-09-21T03:05:53.631Z,76.92
2022-09-21T03:08:20.787Z,76.97
2022-09-21T03:10:50.189Z,76.85
2022-09-21T03:13:18.334Z,76.75
2022-09-21T03:15:46.073Z,76.83
2022-09-21T03:18:13.397Z,76.89
2022-09-21T03:20:45.575Z,77.01
2022-09-21T03:23:13.106Z,76.99
2022-09-21T03:25:39.953Z,76.90
2022-09-21T03:28:06.707Z,76.78
2022-09-21T03:30:34.922Z,76.80
2022-09-21T03:33:02.900Z,76.66
2022-09-21T03:35:29.682Z,76.71
2022-09-21T03:37:57.477Z,76.86
2022-09-21T03:40:26.856Z,76.75
2022-09-21T03:42:55.024Z,76.87
2022-09-21T03:45:22.207Z,76.64
2022-09-21T03:47:48.934Z,76.86
2022-09-21T03:50:15.756Z,76.81
2022-09-21T03:52:42.540Z,76.88
2022-09-21T03:55:09.378Z,76.92
2022-09-21T03:57:37.011Z,76.87
2022-09-21T04:00:08.183Z,76.95
2022-09-21T04:02:36.501Z,76.68
2022-09-21T04:05:04.186Z,76.50
2022-09-21T04:07:33.938Z,76.55
2022-09-21T04:10:02.313Z,76.70
2022-09-21T04:12:29.325Z,76.80
2022-09-21T04:14:56.082Z,76.86
2022-09-21T04:17:22.909Z,76.97
2022-09-21T04:19:49.694Z,77.03
2022-09-21T04:22:16.532Z,76.98
2022-09-21T04:24:43.260Z,77.00
2022-09-21T04:27:11.708Z,76.96
2022-09-21T04:29:38.511Z,76.83
2022-09-21T04:32:05.625Z,76.96
2022-09-21T04:34:32.427Z,77.06
2022-09-21T04:36:59.343Z,77.18
2022-09-21T04:39:26.190Z,77.10
2022-09-21T04:41:52.999Z,77.27
2022-09-21T04:44:19.863Z,77.19
2022-09-21T04:46:46.707Z,77.22
2022-09-21T04:49:13.519Z,77.07
2022-09-21T04:51:40.321Z,77.43
2022-09-21T04:54:07.255Z,77.37
2022-09-21T04:56:34.516Z,77.37
2022-09-21T04:59:01.212Z,77.28
2022-09-21T05:01:28.833Z,77.18
2022-09-21T05:04:01.130Z,77.25
2022-09-21T05:06:32.901Z,77.49
2022-09-21T05:09:18.699Z,77.35
2022-09-21T05:11:45.763Z,77.49
2022-09-21T05:14:12.686Z,77.47
2022-09-21T05:16:39.512Z,77.43
2022-09-21T05:19:07.152Z,77.66
2022-09-21T05:21:35.797Z,77.54
2022-09-21T05:24:02.916Z,77.43
2022-09-21T05:26:29.934Z,77.57
2022-09-21T05:28:57.018Z,77.58
2022-09-21T05:31:40.281Z,77.23
2022-09-21T05:34:36.154Z,77.38
2022-09-21T05:37:24.348Z,77.43
2022-09-21T05:39:51.379Z,77.39
2022-09-21T05:42:18.313Z,77.43
2022-09-21T05:44:45.311Z,77.51
2022-09-21T05:47:37.095Z,77.52
2022-09-21T05:50:48.891Z,77.58
2022-09-21T05:53:24.690Z,77.54
2022-09-21T05:56:00.255Z,77.61
2022-09-21T05:58:53.039Z,77.43
2022-09-21T06:01:38.970Z,77.56
2022-09-21T06:04:10.737Z,77.54
2022-09-21T06:06:38.381Z,77.49
2022-09-21T06:09:05.108Z,77.31
2022-09-21T06:11:32.046Z,77.57
2022-09-21T06:14:01.169Z,77.37
2022-09-21T06:16:37.030Z,77.40
2022-09-21T06:19:03.974Z,77.56
2022-09-21T06:21:30.821Z,77.52
2022-09-21T06:23:57.944Z,77.52
2022-09-21T06:26:26.450Z,77.42
2022-09-21T06:28:53.200Z,77.52
2022-09-21T06:31:19.957Z,77.34
2022-09-21T06:33:48.223Z,77.34
2022-09-21T06:36:16.025Z,77.44
2022-09-21T06:38:42.798Z,77.45
2022-09-21T06:41:10.420Z,77.43
2022-09-21T06:43:37.144Z,77.45
2022-09-21T06:46:04.459Z,77.69
2022-09-21T06:48:33.778Z,77.63
2022-09-21T06:51:03.286Z,77.86
2022-09-21T06:53:31.911Z,78.27
2022-09-21T06:56:03.532Z,78.37
2022-09-21T06:58:33.691Z,78.37
2022-09-21T07:01:11.965Z,78.47
2022-09-21T07:03:40.542Z,78.65
2022-09-21T07:06:08.671Z,78.71
2022-09-21T07:11:23.538Z,78.71
2022-09-21T07:13:50.449Z,78.90
2022-09-21T07:16:18.207Z,78.88
2022-09-21T07:18:45.467Z,79.21
2022-09-21T07:21:12.565Z,79.11
2022-09-21T07:23:39.221Z,79.26
2022-09-21T07:26:11.961Z,79.11
2022-09-21T07:28:39.567Z,79.13
2022-09-21T07:31:15.091Z,79.44
2022-09-21T07:33:46.025Z,79.46
2022-09-21T07:36:13.340Z,79.23
2022-09-21T07:38:43.937Z,78.99
2022-09-21T07:41:13.628Z,78.62
2022-09-21T07:43:41.144Z,78.63
2022-09-21T07:46:12.524Z,78.02
2022-09-21T07:48:39.590Z,78.13
2022-09-21T07:51:09.467Z,77.90
2022-09-21T07:53:37.246Z,77.95
2022-09-21T07:56:10.115Z,77.57
2022-09-21T07:58:56.801Z,77.66
2022-09-21T08:01:24.526Z,77.53
2022-09-21T08:03:53.704Z,77.62
2022-09-21T08:06:21.719Z,77.45
2022-09-21T08:08:53.711Z,77.39
2022-09-21T08:11:25.401Z,76.97
2022-09-21T08:13:53.855Z,77.09
2022-09-21T08:16:20.915Z,77.64
2022-09-21T08:18:48.006Z,77.69
2022-09-21T08:21:14.783Z,77.40
2022-09-21T08:23:42.512Z,77.06
2022-09-21T08:26:20.851Z,75.82
2022-09-21T08:28:52.351Z,75.48
2022-09-21T08:31:21.374Z,75.79
2022-09-21T08:33:49.333Z,75.98
2022-09-21T08:36:16.615Z,75.02
2022-09-21T08:38:43.644Z,74.83
2022-09-21T08:41:14.330Z,74.55
2022-09-21T08:43:44.254Z,73.33
2022-09-21T08:46:18.419Z,73.53
2022-09-21T08:49:10.374Z,73.72
2022-09-21T08:51:49.276Z,73.73
2022-09-21T08:54:25.168Z,73.43
2022-09-21T08:57:06.327Z,73.47
2022-09-21T08:59:34.800Z,73.45
2022-09-21T09:02:22.474Z,73.11
2022-09-21T09:05:11.209Z,73.21
2022-09-21T09:07:56.514Z,73.28
2022-09-21T09:10:41.016Z,73.39
2022-09-21T09:13:07.697Z,73.27
2022-09-21T09:15:58.465Z,73.42
2022-09-21T09:18:34.655Z,73.27
2022-09-21T09:21:16.539Z,73.28
2022-09-21T09:23:59.883Z,72.83
2022-09-21T09:26:34.500Z,72.85
2022-09-21T09:29:24.429Z,72.77
2022-09-21T09:31:54.355Z,71.50
2022-09-21T09:34:44.497Z,70.27
2022-09-21T09:37:14.301Z,69.41
2022-09-21T09:39:42.552Z,68.63
2022-09-21T09:42:37.055Z,68.75
2022-09-21T09:45:54.680Z,69.13
2022-09-21T09:48:23.910Z,68.87
2022-09-21T09:50:50.666Z,68.91
2022-09-21T09:53:21.823Z,67.29
2022-09-21T09:55:54.119Z,67.58
2022-09-21T09:58:30.478Z,67.87
2022-09-21T10:00:58.951Z,67.49
2022-09-21T10:03:27.355Z,67.45
2022-09-21T10:05:55.060Z,67.40
2022-09-21T10:08:46.798Z,67.59
2022-09-21T10:11:15.777Z,67.35
2022-09-21T10:13:48.547Z,67.53
2022-09-21T10:16:21.596Z,67.66
2022-09-21T10:19:00.827Z,67.72
2022-09-21T10:21:35.324Z,66.87
2022-09-21T10:24:02.181Z,66.61
2022-09-21T10:26:36.431Z,66.17
2022-09-21T10:29:29.747Z,66.28
2022-09-21T10:31:58.663Z,66.59
2022-09-21T10:34:29.671Z,66.18
2022-09-21T10:36:59.469Z,64.41
2022-09-21T10:39:32.785Z,64.20
2022-09-21T10:42:15.784Z,64.24
2022-09-21T10:44:45.570Z,64.39
2022-09-21T10:47:16.721Z,64.84
2022-09-21T10:49:49.858Z,65.37
2022-09-21T10:52:21.128Z,64.35
2022-09-21T10:54:51.933Z,64.50
2022-09-21T10:57:22.023Z,64.65
2022-09-21T10:59:49.010Z,64.91
2022-09-21T11:02:29.290Z,64.78
2022-09-21T11:05:21.287Z,64.29
2022-09-21T11:07:56.774Z,64.62
2022-09-21T11:10:41.876Z,63.73
2022-09-21T11:13:09.552Z,64.02
2022-09-21T11:16:00.920Z,64.24
2022-09-21T11:18:48.736Z,64.00
2022-09-21T11:21:46.329Z,64.04
2022-09-21T11:24:33.358Z,64.28
2022-09-21T11:27:04.977Z,64.21
2022-09-21T11:29:56.557Z,64.18
2022-09-21T11:32:45.117Z,64.48
2022-09-21T11:35:26.450Z,64.42
2022-09-21T11:38:43.465Z,63.50
2022-09-21T11:41:13.382Z,64.52
2022-09-21T11:44:03.657Z,63.73
2022-09-21T11:46:58.452Z,63.33
2022-09-21T11:49:33.873Z,63.49
2022-09-21T11:52:38.540Z,63.44
2022-09-21T11:55:15.604Z,62.70
2022-09-21T11:57:55.051Z,62.12
2022-09-21T12:00:22.790Z,61.67
2022-09-21T12:03:14.973Z,62.63
2022-09-21T12:05:56.810Z,63.13
2022-09-21T12:08:29.438Z,63.56
2022-09-21T12:11:20.697Z,63.70
2022-09-21T12:14:14.895Z,63.38
2022-09-21T12:16:52.705Z,63.56
2022-09-21T12:19:34.125Z,64.02
2022-09-21T12:22:25.561Z,64.12
2022-09-21T12:24:57.802Z,63.83
2022-09-21T12:27:46.710Z,63.29
2022-09-21T12:30:19.411Z,62.46
2022-09-21T12:32:52.570Z,62.68
2022-09-21T12:35:27.869Z,62.61
2022-09-21T12:38:05.465Z,62.01
2022-09-21T12:40:50.877Z,61.93
2022-09-21T12:43:36.491Z,62.35
2022-09-21T12:46:14.079Z,62.19
2022-09-21T12:48:45.063Z,61.13
2022-09-21T12:51:17.683Z,60.98
2022-09-21T12:53:51.408Z,61.06
2022-09-21T12:56:43.230Z,60.78
2022-09-21T12:59:30.542Z,60.80
2022-09-21T13:02:12.574Z,61.38
2022-09-21T13:04:45.174Z,62.07
2022-09-21T13:07:32.847Z,62.46
2022-09-21T13:10:07.544Z,63.10
2022-09-21T13:12:44.372Z,63.38
2022-09-21T13:15:23.614Z,63.72
2022-09-21T13:18:17.732Z,63.48
2022-09-21T13:20:45.661Z,63.10
2022-09-21T13:23:17.141Z,63.18
2022-09-21T13:25:59.981Z,63.40
2022-09-21T13:29:00.072Z,63.15
2022-09-21T13:31:41.489Z,63.37
2022-09-21T13:34:50.324Z,62.05
2022-09-21T13:37:20.038Z,62.26
2022-09-21T13:40:02.366Z,62.11
2022-09-21T13:42:32.496Z,62.19
2022-09-21T13:45:00.299Z,61.81
2022-09-21T13:47:33.485Z,62.26
2022-09-21T13:50:09.949Z,62.46
2022-09-21T13:52:47.640Z,63.05
2022-09-21T13:55:52.634Z,63.16
2022-09-21T13:58:32.272Z,63.03
2022-09-21T14:01:05.747Z,62.77
2022-09-21T14:03:40.393Z,62.00
2022-09-21T14:06:11.937Z,61.30
2022-09-21T14:08:54.398Z,61.02
2022-09-21T14:11:28.925Z,60.29
2022-09-21T14:14:09.544Z,61.45
2022-09-21T14:16:39.301Z,61.20
2022-09-21T14:19:14.909Z,61.56
2022-09-21T14:22:04.544Z,61.87
2022-09-21T14:24:50.922Z,61.87
2022-09-21T14:27:42.307Z,62.32
2022-09-21T14:30:28.636Z,62.12
2022-09-21T14:33:32.682Z,61.95
2022-09-21T14:36:06.846Z,62.29
2022-09-21T14:38:47.703Z,62.09
2022-09-21T14:41:20.293Z,62.70
2022-09-21T14:43:53.998Z,62.65
2022-09-21T14:46:48.859Z,62.77
2022-09-21T14:49:32.326Z,62.83
2022-09-21T14:52:31.881Z,62.87
2022-09-21T14:55:05.245Z,63.14
2022-09-21T14:57:53.161Z,63.36
2022-09-21T15:00:31.298Z,63.24
2022-09-21T15:03:18.380Z,63.60
2022-09-21T15:05:53.074Z,63.81
2022-09-21T15:08:50.626Z,63.67
2022-09-21T15:11:28.751Z,63.80
2022-09-21T15:14:16.388Z,64.02
2022-09-21T15:16:46.755Z,64.00
2022-09-21T15:19:34.657Z,64.18
2022-09-21T15:22:22.317Z,64.20
2022-09-21T15:24:50.721Z,64.40
2022-09-21T15:27:19.626Z,64.37
2022-09-21T15:29:53.255Z,64.53
2022-09-21T15:32:29.148Z,64.27
2022-09-21T15:35:06.132Z,63.98
2022-09-21T15:37:39.093Z,63.91
2022-09-21T15:40:23.488Z,63.98
2022-09-21T15:43:20.086Z,64.20
2022-09-21T15:45:55.759Z,64.01
2022-09-21T15:48:24.066Z,63.97
2022-09-21T15:50:57.546Z,64.26
2022-09-21T15:53:32.568Z,64.49
2022-09-21T15:56:01.059Z,64.64
2022-09-21T15:58:36.758Z,64.45
2022-09-21T16:01:13.466Z,64.58
2022-09-21T16:03:41.361Z,64.51
2022-09-21T16:06:27.471Z,64.54
2022-09-21T16:08:54.719Z,64.68
2022-09-21T16:11:25.788Z,64.79
2022-09-21T16:14:35.828Z,64.67
2022-09-21T16:17:09.129Z,64.87
2022-09-21T16:19:43.066Z,64.85
2022-09-21T16:22:15.716Z,65.05
2022-09-21T16:25:01.188Z,65.21
2022-09-21T16:27:31.517Z,64.95
2022-09-21T16:30:00.524Z,64.87
2022-09-21T16:32:31.503Z,65.05
2022-09-21T16:35:30.750Z,65.30
2022-09-21T16:37:58.411Z,65.08
2022-09-21T16:40:26.398Z,65.25
2022-09-21T16:42:53.819Z,65.17
2022-09-21T16:45:28.000Z,65.21
2022-09-21T16:47:55.733Z,65.24
2022-09-21T16:50:23.948Z,65.24
2022-09-21T16:52:52.271Z,65.35
2022-09-21T16:55:19.672Z,65.44
2022-09-21T16:57:48.336Z,65.53
2022-09-21T17:00:21.509Z,65.37
2022-09-21T17:04:10.621Z,65.66
2022-09-21T17:06:39.465Z,66.07
2022-09-21T17:09:48.184Z,66.01
2022-09-21T17:12:17.883Z,65.94
2022-09-21T17:14:47.314Z,66.11
2022-09-21T17:17:22.602Z,66.09
2022-09-21T17:19:54.084Z,66.34
2022-09-21T17:22:24.599Z,66.54
2022-09-21T17:25:12.304Z,66.70
2022-09-21T17:27:41.819Z,66.97
2022-09-21T17:30:13.923Z,67.37
2022-09-21T17:32:42.683Z,67.30
2022-09-21T17:35:32.414Z,67.43
2022-09-21T17:38:00.104Z,67.51
2022-09-21T17:40:29.625Z,67.83
2022-09-21T17:43:06.385Z,68.22
2022-09-21T17:46:06.662Z,68.11
2022-09-21T17:48:40.102Z,68.22
2022-09-21T17:51:07.753Z,67.70
2022-09-21T17:53:36.669Z,67.82
2022-09-21T17:56:40.809Z,68.02
2022-09-21T17:59:31.901Z,68.36
2022-09-21T18:02:00.800Z,68.44
2022-09-21T18:04:34.497Z,68.73
2022-09-21T18:07:04.257Z,68.82
2022-09-21T18:09:35.191Z,68.74
2022-09-21T18:12:03.717Z,68.65
2022-09-21T18:14:52.549Z,68.38
2022-09-21T18:18:02.076Z,68.29
2022-09-21T18:20:29.013Z,68.17
2022-09-21T18:23:19.179Z,68.15
2022-09-21T18:29:50.945Z,68.10
2022-09-21T18:33:00.458Z,68.19
2022-09-21T18:35:42.203Z,68.52
2022-09-21T18:38:29.348Z,68.58
2022-09-21T18:41:31.081Z,68.74
2022-09-21T18:44:08.727Z,68.86
2022-09-21T18:46:52.049Z,69.06
2022-09-21T18:49:57.784Z,69.02
2022-09-21T18:52:43.064Z,69.28
2022-09-21T18:55:26.447Z,68.75
2022-09-21T18:57:55.345Z,68.79
2022-09-21T19:00:30.963Z,68.89
2022-09-21T19:03:16.367Z,69.21
2022-09-21T19:06:07.309Z,69.60
2022-09-21T19:08:53.225Z,69.56
2022-09-21T19:11:31.308Z,69.51
2022-09-21T19:14:29.300Z,69.73
2022-09-21T19:17:16.626Z,69.39
2022-09-21T19:19:55.586Z,69.57
2022-09-21T19:22:27.767Z,69.51
2022-09-21T19:25:28.219Z,69.46
2022-09-21T19:28:09.643Z,69.49
2022-09-21T19:30:38.447Z,69.70
2022-09-21T19:33:45.485Z,69.93
2022-09-21T19:36:09.276Z,69.93
2022-09-21T19:38:37.340Z,69.82
2022-09-21T19:41:17.190Z,70.03
2022-09-21T19:43:56.765Z,69.94
2022-09-21T19:46:44.225Z,69.95
2022-09-21T19:49:18.619Z,69.65
2022-09-21T19:51:56.493Z,69.59
2022-09-21T19:54:47.192Z,69.80
2022-09-21T19:57:34.294Z,69.66
2022-09-21T20:00:03.867Z,70.14
2022-09-21T20:02:40.116Z,70.12
2022-09-21T20:05:33.772Z,69.80
2022-09-21T20:08:24.173Z,70.06
2022-09-21T20:14:45.065Z,69.76
2022-09-21T20:17:18.015Z,69.82
2022-09-21T20:20:15.377Z,69.88
2022-09-21T20:22:42.380Z,70.00
2022-09-21T20:25:09.452Z,69.88
2022-09-21T20:27:44.510Z,69.90
2022-09-21T20:30:16.604Z,70.12
2022-09-21T20:32:46.155Z,70.27
2022-09-21T20:35:17.510Z,70.31
2022-09-21T20:37:44.709Z,70.29
2022-09-21T20:40:12.924Z,70.13
2022-09-21T20:42:44.358Z,70.22
2022-09-21T20:45:12.667Z,70.28
2022-09-21T20:47:39.662Z,70.24
2022-09-21T20:50:12.253Z,70.36
2022-09-21T20:53:01.933Z,70.49
2022-09-21T20:55:28.758Z,70.50
2022-09-21T20:57:55.647Z,70.40
2022-09-21T21:00:22.483Z,70.59
2022-09-21T21:02:49.379Z,70.60
2022-09-21T21:05:18.096Z,70.28
2022-09-21T21:07:44.989Z,70.51
2022-09-21T21:10:16.165Z,70.52
2022-09-21T21:12:43.246Z,70.71
2022-09-21T21:15:12.098Z,70.86
2022-09-21T21:17:40.203Z,70.85
2022-09-21T21:20:08.267Z,70.85
2022-09-21T21:22:35.698Z,71.02
2022-09-21T21:25:03.167Z,71.07
2022-09-21T21:27:30.501Z,71.21
2022-09-21T21:29:58.033Z,71.16
2022-09-21T21:32:26.140Z,71.23
2022-09-21T21:34:54.544Z,71.11
2022-09-21T21:37:25.161Z,71.19
2022-09-21T21:39:52.953Z,71.22
2022-09-21T21:42:22.109Z,71.10
2022-09-21T21:44:50.278Z,71.04
2022-09-21T21:50:06.069Z,70.95
2022-09-21T21:52:32.900Z,71.00
2022-09-21T21:54:59.594Z,71.02
2022-09-21T21:57:26.492Z,71.26
2022-09-21T21:59:53.232Z,71.25
2022-09-21T22:02:21.746Z,71.41
2022-09-21T22:06:22.401Z,71.30
2022-09-21T22:12:25.214Z,71.28
2022-09-21T22:15:24.227Z,71.50
2022-09-21T22:21:27.313Z,71.39
2022-09-21T22:24:05.482Z,71.37
2022-09-21T22:34:11.418Z,71.21
2022-09-21T22:34:39.845Z,71.26
2022-09-21T22:42:13.042Z,71.34
2022-09-21T22:45:39.220Z,71.30
2022-09-21T22:49:15.102Z,71.29
2022-09-21T22:51:19.833Z,71.34
2022-09-21T22:53:50.635Z,71.46
2022-09-21T22:56:23.914Z,71.29
2022-09-21T22:59:10.213Z,71.42
2022-09-21T23:01:40.169Z,71.33
2022-09-21T23:04:09.743Z,71.33
2022-09-21T23:06:39.002Z,71.13
2022-09-21T23:09:09.309Z,71.25
2022-09-21T23:11:41.574Z,71.16
2022-09-21T23:14:10.148Z,71.21
2022-09-21T23:16:58.395Z,71.22
2022-09-21T23:19:56.673Z,71.32
2022-09-21T23:22:23.887Z,71.38
2022-09-21T23:24:50.644Z,71.51
2022-09-21T23:27:17.364Z,71.65
2022-09-21T23:29:44.149Z,71.61
2022-09-21T23:32:10.867Z,71.47
2022-09-21T23:34:37.584Z,71.49
2022-09-21T23:37:04.431Z,71.51
2022-09-21T23:39:31.439Z,71.56
2022-09-21T23:41:58.400Z,71.44
2022-09-21T23:44:25.446Z,71.36
2022-09-21T23:46:52.289Z,71.35
2022-09-21T23:49:19.087Z,71.32
2022-09-21T23:51:45.897Z,71.43
2022-09-21T23:54:14.667Z,71.48
2022-09-21T23:56:42.166Z,71.41
2022-09-21T23:59:09.403Z,71.50
